Time;durP1;ratioP1;P1;durP2;ratioP2;P2;SDS_P1;SDS_P2;PMS_P1;PMS_P2;Temp;Humidity;BMP_temperature;BMP_pressure;BME280_temperature;BME280_humidity;BME280_pressure;Samples;Min_cycle;Max_cycle;Signal;HPM_P1;HPM_P2
2023/07/16 00:02:21;;;;;;;11.27;7.90;;;;;;;;;;5040480;28;20455;-66
2023/07/16 00:04:46;;;;;;;10.00;7.97;;;;;;;;;;5022914;28;20284;-64
2023/07/16 00:07:12;;;;;;;11.50;7.33;;;;;;;;;;5028333;28;20284;-65
2023/07/16 00:09:37;;;;;;;10.38;7.38;;;;;;;;;;5044205;28;21176;-62
2023/07/16 00:12:03;;;;;;;11.13;7.57;;;;;;;;;;5038959;28;20045;-61
2023/07/16 00:14:28;;;;;;;11.85;7.30;;;;;;;;;;5043723;28;21360;-59
2023/07/16 00:16:53;;;;;;;12.03;7.93;;;;;;;;;;5043407;28;20127;-63
2023/07/16 00:19:18;;;;;;;11.57;7.40;;;;;;;;;;5024377;28;20318;-60
2023/07/16 00:21:43;;;;;;;11.50;7.57;;;;;;;;;;5032964;28;20056;-63
2023/07/16 00:24:09;;;;;;;10.93;7.50;;;;;;;;;;5044717;28;20279;-61
2023/07/16 00:26:34;;;;;;;9.23;7.27;;;;;;;;;;5045090;28;20163;-59
2023/07/16 00:28:59;;;;;;;12.87;7.57;;;;;;;;;;5028196;28;20045;-60
2023/07/16 00:31:24;;;;;;;10.37;7.20;;;;;;;;;;5027777;28;20037;-60
2023/07/16 00:33:50;;;;;;;9.67;7.83;;;;;;;;;;5050026;28;20595;-60
2023/07/16 00:36:15;;;;;;;8.25;6.70;;;;;;;;;;5049842;28;20276;-61
2023/07/16 00:38:41;;;;;;;11.70;7.13;;;;;;;;;;5038446;28;20043;-59
2023/07/16 00:41:06;;;;;;;9.75;7.00;;;;;;;;;;5050362;28;20843;-61
2023/07/16 00:43:31;;;;;;;8.85;6.68;;;;;;;;;;5026580;28;20049;-60
2023/07/16 00:45:57;;;;;;;9.67;6.60;;;;;;;;;;5026256;28;20491;-61
2023/07/16 00:48:22;;;;;;;12.30;7.03;;;;;;;;;;5000989;28;20291;-61
2023/07/16 00:50:47;;;;;;;8.63;6.07;;;;;;;;;;5042738;28;20040;-61
2023/07/16 00:53:12;;;;;;;8.07;6.40;;;;;;;;;;5026750;28;20149;-61
2023/07/16 00:55:38;;;;;;;10.30;6.40;;;;;;;;;;5025738;28;20040;-61
2023/07/16 00:58:05;;;;;;;8.88;6.07;;;;;;;;;;5033430;28;20061;-61
2023/07/16 01:00:30;;;;;;;11.90;5.90;;;;;;;;;;5045104;28;20071;-62
2023/07/16 01:02:56;;;;;;;11.43;6.63;;;;;;;;;;5027669;28;20523;-60
2023/07/16 01:05:21;;;;;;;7.37;5.67;;;;;;;;;;5025696;28;20555;-60
2023/07/16 01:07:55;;;;;;;9.07;6.10;;;;;;;;;;5015189;28;20712;-61
2023/07/16 01:10:21;;;;;;;8.85;6.18;;;;;;;;;;5029041;28;20044;-61
2023/07/16 01:12:46;;;;;;;10.68;5.80;;;;;;;;;;5022677;28;20053;-61
2023/07/16 01:15:11;;;;;;;12.00;5.63;;;;;;;;;;5044887;28;20550;-61
2023/07/16 01:17:37;;;;;;;6.70;5.70;;;;;;;;;;5027414;28;20374;-61
2023/07/16 01:20:02;;;;;;;8.60;5.00;;;;;;;;;;5038140;28;20068;-61
2023/07/16 01:22:30;;;;;;;8.75;5.50;;;;;;;;;;5035432;28;20037;-61
2023/07/16 01:24:56;;;;;;;7.30;5.28;;;;;;;;;;5025391;28;20037;-61
2023/07/16 01:27:39;;;;;;;7.70;5.23;;;;;;;;;;5042938;28;20595;-61
2023/07/16 01:30:05;;;;;;;9.43;5.18;;;;;;;;;;5032677;28;20168;-61
2023/07/16 01:32:30;;;;;;;7.25;4.80;;;;;;;;;;5015942;28;20483;-61
2023/07/16 01:34:55;;;;;;;8.43;5.18;;;;;;;;;;5025706;28;20128;-61
2023/07/16 01:37:21;;;;;;;7.83;4.97;;;;;;;;;;5007522;28;20022;-61
2023/07/16 01:39:46;;;;;;;6.70;4.60;;;;;;;;;;5050380;28;20764;-60
2023/07/16 01:42:12;;;;;;;6.73;5.00;;;;;;;;;;5041251;28;20284;-62
2023/07/16 01:44:37;;;;;;;7.50;5.40;;;;;;;;;;5024711;28;20037;-61
2023/07/16 01:47:13;;;;;;;6.70;5.33;;;;;;;;;;5034871;28;20553;-61
2023/07/16 01:49:39;;;;;;;8.90;5.28;;;;;;;;;;5026985;28;20033;-61
2023/07/16 01:52:04;;;;;;;8.52;5.15;;;;;;;;;;5042669;28;20036;-61
2023/07/16 01:54:30;;;;;;;8.48;5.20;;;;;;;;;;5026486;28;20037;-61
2023/07/16 01:56:55;;;;;;;7.75;5.00;;;;;;;;;;5044472;28;20037;-61
2023/07/16 01:59:20;;;;;;;7.03;4.97;;;;;;;;;;5028075;28;20492;-61
2023/07/16 02:01:45;;;;;;;8.47;4.73;;;;;;;;;;5036135;28;20415;-61
2023/07/16 02:04:11;;;;;;;9.43;4.90;;;;;;;;;;5027211;28;20483;-61
2023/07/16 02:06:36;;;;;;;8.53;4.97;;;;;;;;;;5032777;28;20114;-61
2023/07/16 02:09:01;;;;;;;9.63;5.10;;;;;;;;;;5031021;28;20284;-60
2023/07/16 02:11:26;;;;;;;8.17;4.90;;;;;;;;;;5025112;28;20092;-61
2023/07/16 02:13:52;;;;;;;6.90;4.80;;;;;;;;;;5041282;28;20037;-61
2023/07/16 02:16:17;;;;;;;5.57;4.43;;;;;;;;;;5045130;28;20353;-61
2023/07/16 02:18:42;;;;;;;6.97;4.20;;;;;;;;;;5034508;28;20695;-61
2023/07/16 02:21:07;;;;;;;8.53;4.20;;;;;;;;;;5023125;28;20292;-61
2023/07/16 02:23:32;;;;;;;6.63;4.00;;;;;;;;;;5030318;28;20294;-61
2023/07/16 02:25:58;;;;;;;7.27;4.33;;;;;;;;;;5026962;28;20125;-62
2023/07/16 02:28:23;;;;;;;6.10;4.10;;;;;;;;;;5044563;28;20522;-61
2023/07/16 02:30:49;;;;;;;7.38;4.18;;;;;;;;;;5026970;28;20029;-61
2023/07/16 02:33:14;;;;;;;6.55;3.90;;;;;;;;;;5042393;28;20037;-61
2023/07/16 02:35:39;;;;;;;5.70;3.80;;;;;;;;;;5044636;28;20033;-60
2023/07/16 02:38:04;;;;;;;7.17;4.23;;;;;;;;;;5043984;28;20057;-61
2023/07/16 02:40:30;;;;;;;8.98;4.63;;;;;;;;;;5047381;28;20045;-60
2023/07/16 02:42:55;;;;;;;6.63;4.33;;;;;;;;;;5035691;28;20029;-60
2023/07/16 02:45:20;;;;;;;6.70;4.10;;;;;;;;;;5040533;28;20296;-61
2023/07/16 02:47:45;;;;;;;7.88;4.40;;;;;;;;;;5040252;28;20056;-60
2023/07/16 02:50:11;;;;;;;6.20;4.80;;;;;;;;;;5042487;28;20570;-59
2023/07/16 02:52:36;;;;;;;5.72;4.13;;;;;;;;;;5044145;28;20392;-60
2023/07/16 02:55:02;;;;;;;7.80;4.17;;;;;;;;;;5027837;28;20920;-60
2023/07/16 02:57:27;;;;;;;7.50;4.32;;;;;;;;;;5028516;28;20299;-60
2023/07/16 02:59:52;;;;;;;6.37;4.00;;;;;;;;;;5027864;28;20021;-63
2023/07/16 03:02:17;;;;;;;6.78;3.80;;;;;;;;;;5047023;28;20302;-60
2023/07/16 03:04:43;;;;;;;6.60;3.80;;;;;;;;;;5028350;28;20052;-60
2023/07/16 03:07:08;;;;;;;7.17;4.20;;;;;;;;;;5028182;28;20300;-60
2023/07/16 03:09:33;;;;;;;6.67;4.33;;;;;;;;;;5040628;28;20083;-63
2023/07/16 03:11:58;;;;;;;8.87;4.07;;;;;;;;;;5027814;28;20260;-61
2023/07/16 03:14:23;;;;;;;6.73;4.30;;;;;;;;;;5034669;28;20009;-60
2023/07/16 03:16:49;;;;;;;6.70;4.33;;;;;;;;;;5028301;28;20490;-60
2023/07/16 03:19:14;;;;;;;7.40;4.10;;;;;;;;;;5037974;28;20268;-60
2023/07/16 03:21:39;;;;;;;6.10;3.67;;;;;;;;;;5044647;28;20024;-60
2023/07/16 03:24:04;;;;;;;6.43;3.90;;;;;;;;;;5034063;28;20265;-61
2023/07/16 03:26:30;;;;;;;8.27;4.47;;;;;;;;;;5033910;28;20812;-61
2023/07/16 03:28:55;;;;;;;4.78;3.80;;;;;;;;;;5029627;28;20151;-61
2023/07/16 03:31:21;;;;;;;6.80;4.00;;;;;;;;;;5053144;28;20769;-61
2023/07/16 03:33:46;;;;;;;6.00;4.10;;;;;;;;;;5044875;28;20355;-61
2023/07/16 03:36:11;;;;;;;6.07;4.20;;;;;;;;;;5056179;28;20040;-63
2023/07/16 03:38:36;;;;;;;5.60;4.27;;;;;;;;;;5045858;28;20024;-63
2023/07/16 03:41:02;;;;;;;8.73;4.68;;;;;;;;;;5055788;28;20290;-61
2023/07/16 03:43:27;;;;;;;8.18;4.18;;;;;;;;;;5044763;28;20028;-61
2023/07/16 03:45:52;;;;;;;5.87;4.00;;;;;;;;;;5028412;28;20037;-60
2023/07/16 03:48:17;;;;;;;9.73;3.93;;;;;;;;;;5028400;28;20876;-62
2023/07/16 03:50:43;;;;;;;6.37;3.90;;;;;;;;;;5045977;28;20505;-60
2023/07/16 03:53:08;;;;;;;6.07;4.20;;;;;;;;;;5043542;28;20386;-61
2023/07/16 03:55:33;;;;;;;5.70;3.87;;;;;;;;;;5026919;28;20280;-61
2023/07/16 03:57:58;;;;;;;7.15;4.05;;;;;;;;;;5026907;28;20347;-61
2023/07/16 04:00:24;;;;;;;5.37;4.37;;;;;;;;;;5038954;28;20020;-60
2023/07/16 04:02:49;;;;;;;5.30;3.73;;;;;;;;;;5045123;28;20107;-61
2023/07/16 04:05:14;;;;;;;5.00;3.77;;;;;;;;;;5045134;28;20017;-61
2023/07/16 04:07:39;;;;;;;6.88;4.25;;;;;;;;;;5045822;28;20275;-61
2023/07/16 04:10:05;;;;;;;7.10;4.30;;;;;;;;;;5047257;28;20024;-61
2023/07/16 04:12:30;;;;;;;4.55;3.80;;;;;;;;;;5046391;28;20268;-61
2023/07/16 04:14:58;;;;;;;6.65;3.97;;;;;;;;;;5039343;28;20123;-61
2023/07/16 04:17:24;;;;;;;6.75;4.15;;;;;;;;;;5046789;28;20614;-61
2023/07/16 04:19:49;;;;;;;7.00;5.05;;;;;;;;;;5046169;28;20020;-61
2023/07/16 04:22:14;;;;;;;7.60;4.73;;;;;;;;;;5030213;28;20029;-61
2023/07/16 04:24:40;;;;;;;8.07;4.87;;;;;;;;;;5037980;28;20271;-60
2023/07/16 04:27:05;;;;;;;9.13;4.70;;;;;;;;;;5045670;28;20409;-61
2023/07/16 04:29:30;;;;;;;9.15;4.57;;;;;;;;;;5045150;28;20021;-61
2023/07/16 04:31:55;;;;;;;7.17;4.60;;;;;;;;;;5046982;28;20498;-61
2023/07/16 04:34:21;;;;;;;6.47;4.43;;;;;;;;;;5035306;28;20670;-60
2023/07/16 04:36:46;;;;;;;8.07;4.40;;;;;;;;;;5048172;28;20318;-61
2023/07/16 04:39:11;;;;;;;7.68;4.20;;;;;;;;;;5050382;28;20282;-61
2023/07/16 04:41:36;;;;;;;7.22;3.95;;;;;;;;;;5043952;28;20106;-61
2023/07/16 04:44:02;;;;;;;6.50;4.40;;;;;;;;;;5046118;28;20091;-60
2023/07/16 04:46:27;;;;;;;7.93;4.20;;;;;;;;;;5028498;28;20291;-61
2023/07/16 04:48:53;;;;;;;7.00;3.85;;;;;;;;;;5026396;28;20083;-60
2023/07/16 04:51:18;;;;;;;6.22;4.40;;;;;;;;;;5041028;28;20055;-61
2023/07/16 04:53:44;;;;;;;7.47;4.40;;;;;;;;;;5042071;28;20453;-61
2023/07/16 04:56:12;;;;;;;6.63;4.20;;;;;;;;;;5049016;28;20031;-61
2023/07/16 04:58:38;;;;;;;8.65;4.13;;;;;;;;;;5042450;28;20033;-61
2023/07/16 05:01:03;;;;;;;8.23;4.40;;;;;;;;;;5040846;28;20035;-62
2023/07/16 05:03:28;;;;;;;7.03;4.30;;;;;;;;;;5041492;28;20029;-61
2023/07/16 05:05:54;;;;;;;6.20;4.53;;;;;;;;;;5038316;28;20320;-64
2023/07/16 05:08:19;;;;;;;8.20;4.25;;;;;;;;;;5045435;28;20272;-63
2023/07/16 05:10:44;;;;;;;7.00;4.87;;;;;;;;;;5045490;28;20118;-62
2023/07/16 05:13:09;;;;;;;6.93;4.63;;;;;;;;;;5045802;28;20331;-62
2023/07/16 05:15:35;;;;;;;6.68;4.97;;;;;;;;;;5042702;28;20760;-62
2023/07/16 05:18:00;;;;;;;7.57;4.53;;;;;;;;;;5045829;28;20115;-61
2023/07/16 05:20:25;;;;;;;8.03;4.73;;;;;;;;;;5030951;28;20678;-62
2023/07/16 05:22:50;;;;;;;6.40;4.40;;;;;;;;;;5025290;28;20308;-62
2023/07/16 05:25:16;;;;;;;7.28;4.18;;;;;;;;;;5037781;28;20268;-63
2023/07/16 05:27:41;;;;;;;6.03;4.47;;;;;;;;;;5045773;28;20086;-65
2023/07/16 05:30:06;;;;;;;5.47;4.00;;;;;;;;;;5034157;28;20423;-63
2023/07/16 05:32:32;;;;;;;7.85;4.20;;;;;;;;;;5045410;28;20284;-63
2023/07/16 05:34:57;;;;;;;7.03;3.90;;;;;;;;;;5035253;28;20048;-61
2023/07/16 05:37:22;;;;;;;7.60;4.23;;;;;;;;;;5026036;28;20850;-62
2023/07/16 05:39:47;;;;;;;6.40;4.10;;;;;;;;;;5036202;28;20286;-61
2023/07/16 05:42:13;;;;;;;8.70;4.35;;;;;;;;;;5035349;28;21001;-61
2023/07/16 05:44:38;;;;;;;6.77;4.50;;;;;;;;;;5031291;28;20433;-61
2023/07/16 05:47:03;;;;;;;7.57;4.60;;;;;;;;;;5045724;28;20290;-62
2023/07/16 05:49:29;;;;;;;5.82;4.80;;;;;;;;;;5039512;28;20033;-62
2023/07/16 05:51:55;;;;;;;7.68;4.38;;;;;;;;;;5033898;28;20112;-62
2023/07/16 05:54:21;;;;;;;5.85;4.15;;;;;;;;;;5007227;28;20038;-61
2023/07/16 05:56:46;;;;;;;9.85;4.50;;;;;;;;;;5025393;28;20144;-62
2023/07/16 05:59:12;;;;;;;7.23;4.60;;;;;;;;;;5026871;28;20463;-62
2023/07/16 06:01:37;;;;;;;6.87;4.67;;;;;;;;;;5033808;28;20037;-62
2023/07/16 06:04:02;;;;;;;10.57;4.70;;;;;;;;;;5039878;28;20299;-62
2023/07/16 06:06:28;;;;;;;7.15;4.63;;;;;;;;;;5034763;28;20402;-61
2023/07/16 06:08:53;;;;;;;6.10;4.45;;;;;;;;;;5036007;28;20041;-62
2023/07/16 06:11:18;;;;;;;7.10;4.77;;;;;;;;;;5035859;28;20060;-62
2023/07/16 06:13:43;;;;;;;6.32;4.72;;;;;;;;;;5038428;28;20153;-62
2023/07/16 06:16:09;;;;;;;9.17;4.80;;;;;;;;;;5040214;28;20470;-62
2023/07/16 06:18:34;;;;;;;6.32;4.88;;;;;;;;;;5041175;28;20386;-62
2023/07/16 06:20:59;;;;;;;7.38;4.50;;;;;;;;;;5037316;28;20721;-62
2023/07/16 06:23:25;;;;;;;7.18;4.40;;;;;;;;;;5043139;28;20506;-62
2023/07/16 06:25:53;;;;;;;5.78;4.25;;;;;;;;;;5047251;28;20076;-62
2023/07/16 06:28:18;;;;;;;8.95;4.43;;;;;;;;;;5047781;28;20147;-62
2023/07/16 06:30:44;;;;;;;8.07;4.30;;;;;;;;;;5046853;28;20597;-63
2023/07/16 06:33:09;;;;;;;9.07;5.15;;;;;;;;;;5049218;28;20033;-62
2023/07/16 06:35:35;;;;;;;8.83;4.43;;;;;;;;;;5046817;28;20036;-62
2023/07/16 06:38:00;;;;;;;8.90;4.60;;;;;;;;;;5049235;28;20370;-62
2023/07/16 06:40:25;;;;;;;9.67;5.70;;;;;;;;;;5052574;28;20459;-62
2023/07/16 06:42:51;;;;;;;9.87;5.60;;;;;;;;;;5038024;28;21173;-62
2023/07/16 06:45:19;;;;;;;7.47;5.17;;;;;;;;;;5046741;28;20367;-62
2023/07/16 06:47:44;;;;;;;6.95;5.15;;;;;;;;;;5043383;28;20049;-63
2023/07/16 06:50:09;;;;;;;7.97;4.97;;;;;;;;;;5039418;28;20111;-63
2023/07/16 06:52:35;;;;;;;8.52;5.30;;;;;;;;;;5038261;28;20120;-64
2023/07/16 06:55:00;;;;;;;6.72;4.75;;;;;;;;;;5020874;28;20545;-64
2023/07/16 06:57:25;;;;;;;6.43;5.03;;;;;;;;;;5039970;28;20521;-63
2023/07/16 06:59:50;;;;;;;10.93;5.77;;;;;;;;;;5040418;28;20303;-62
2023/07/16 07:02:16;;;;;;;8.60;6.53;;;;;;;;;;5040641;28;20037;-63
2023/07/16 07:04:41;;;;;;;7.95;5.82;;;;;;;;;;5038333;28;20037;-63
2023/07/16 07:07:07;;;;;;;8.43;6.03;;;;;;;;;;5037755;28;20584;-64
2023/07/16 07:09:32;;;;;;;10.43;6.07;;;;;;;;;;5039536;28;20348;-65
2023/07/16 07:11:57;;;;;;;7.63;5.43;;;;;;;;;;5022832;28;20309;-66
2023/07/16 07:14:22;;;;;;;8.20;5.20;;;;;;;;;;5037010;28;20110;-65
2023/07/16 07:16:48;;;;;;;7.57;5.80;;;;;;;;;;5038739;28;20102;-63
2023/07/16 07:19:13;;;;;;;7.13;5.80;;;;;;;;;;5036313;28;20287;-64
2023/07/16 07:21:38;;;;;;;8.90;5.33;;;;;;;;;;5040737;28;20354;-64
2023/07/16 07:24:03;;;;;;;9.77;5.97;;;;;;;;;;5038797;28;20053;-63
2023/07/16 07:26:29;;;;;;;9.50;6.00;;;;;;;;;;5036799;28;20862;-65
2023/07/16 07:28:54;;;;;;;7.10;5.50;;;;;;;;;;5040389;28;20311;-65
2023/07/16 07:31:19;;;;;;;9.00;5.15;;;;;;;;;;5039655;28;21163;-63
2023/07/16 07:33:45;;;;;;;7.93;5.37;;;;;;;;;;5038707;28;20453;-62
2023/07/16 07:36:10;;;;;;;7.15;5.30;;;;;;;;;;5036929;28;20042;-62
2023/07/16 07:38:35;;;;;;;6.93;5.20;;;;;;;;;;5039346;28;20505;-63
2023/07/16 07:41:01;;;;;;;9.20;5.23;;;;;;;;;;5039059;28;20091;-64
2023/07/16 07:43:26;;;;;;;5.85;4.85;;;;;;;;;;5039727;28;20412;-64
2023/07/16 07:45:51;;;;;;;7.40;4.82;;;;;;;;;;5038558;28;20283;-63
2023/07/16 07:48:17;;;;;;;7.43;5.13;;;;;;;;;;5038745;28;20467;-62
2023/07/16 07:50:42;;;;;;;8.30;5.10;;;;;;;;;;5038848;28;20295;-63
2023/07/16 07:53:07;;;;;;;6.13;4.75;;;;;;;;;;5038846;28;20618;-62
2023/07/16 07:55:35;;;;;;;6.03;5.07;;;;;;;;;;5038560;28;20120;-63
2023/07/16 07:58:01;;;;;;;6.88;4.57;;;;;;;;;;5033415;28;20052;-63
2023/07/16 08:00:26;;;;;;;8.07;4.88;;;;;;;;;;5033392;28;20033;-64
2023/07/16 08:02:51;;;;;;;8.07;5.45;;;;;;;;;;5017077;28;20525;-62
2023/07/16 08:05:17;;;;;;;8.55;5.57;;;;;;;;;;5036269;28;20095;-62
2023/07/16 08:07:42;;;;;;;8.90;5.72;;;;;;;;;;5033615;28;20049;-64
2023/07/16 08:10:07;;;;;;;6.63;5.20;;;;;;;;;;5034779;28;20116;-63
2023/07/16 08:12:33;;;;;;;7.68;5.43;;;;;;;;;;5033390;28;20060;-64
2023/07/16 08:14:58;;;;;;;8.07;5.47;;;;;;;;;;5031176;28;20042;-63
2023/07/16 08:17:23;;;;;;;6.68;5.15;;;;;;;;;;5033217;28;20357;-64
2023/07/16 08:19:48;;;;;;;7.43;5.40;;;;;;;;;;5034919;28;20044;-66
2023/07/16 08:22:14;;;;;;;8.90;5.47;;;;;;;;;;5034557;28;20607;-64
2023/07/16 08:24:39;;;;;;;8.63;5.50;;;;;;;;;;5040501;28;20034;-66
2023/07/16 08:27:04;;;;;;;9.70;5.70;;;;;;;;;;5038898;28;20300;-65
2023/07/16 08:29:30;;;;;;;7.38;5.35;;;;;;;;;;5034113;28;20299;-64
2023/07/16 08:31:55;;;;;;;6.43;5.07;;;;;;;;;;5034664;28;20033;-64
2023/07/16 08:34:20;;;;;;;6.70;5.13;;;;;;;;;;5035202;28;20029;-64
2023/07/16 08:36:45;;;;;;;7.93;4.72;;;;;;;;;;5032293;28;20507;-63
2023/07/16 08:39:11;;;;;;;6.30;4.70;;;;;;;;;;5037197;28;20083;-64
2023/07/16 08:41:37;;;;;;;6.30;5.13;;;;;;;;;;5036594;28;20306;-63
2023/07/16 08:44:02;;;;;;;7.13;5.00;;;;;;;;;;5037930;28;20442;-64
2023/07/16 08:46:27;;;;;;;7.30;5.60;;;;;;;;;;5036378;28;20045;-64
2023/07/16 08:48:53;;;;;;;7.40;5.33;;;;;;;;;;5035359;28;20095;-64
2023/07/16 08:51:18;;;;;;;7.95;5.43;;;;;;;;;;5000782;28;20068;-64
2023/07/16 08:53:43;;;;;;;7.75;5.80;;;;;;;;;;5035937;28;20060;-64
2023/07/16 08:56:09;;;;;;;9.68;5.40;;;;;;;;;;5036388;28;20042;-66
2023/07/16 08:58:34;;;;;;;7.40;5.50;;;;;;;;;;5034708;28;20080;-64
2023/07/16 09:01:00;;;;;;;8.63;6.00;;;;;;;;;;5034923;28;20298;-65
2023/07/16 09:03:25;;;;;;;7.55;6.18;;;;;;;;;;5035760;28;20208;-63
2023/07/16 09:05:50;;;;;;;9.30;6.70;;;;;;;;;;5036399;28;20576;-66
2023/07/16 09:08:15;;;;;;;9.40;6.10;;;;;;;;;;5033840;28;20373;-61
2023/07/16 09:10:41;;;;;;;8.73;6.35;;;;;;;;;;5034408;28;20064;-61
2023/07/16 09:13:06;;;;;;;7.68;5.88;;;;;;;;;;5033881;28;20511;-61
2023/07/16 09:15:33;;;;;;;8.57;5.90;;;;;;;;;;5035253;28;20613;-61
2023/07/16 09:17:59;;;;;;;10.02;5.90;;;;;;;;;;5010875;28;20283;-61
2023/07/16 09:20:24;;;;;;;9.82;5.97;;;;;;;;;;5034380;28;20110;-61
2023/07/16 09:22:50;;;;;;;9.13;5.32;;;;;;;;;;5034416;28;20040;-61
2023/07/16 09:25:15;;;;;;;9.10;5.80;;;;;;;;;;5034337;28;20454;-61
2023/07/16 09:27:41;;;;;;;7.00;5.70;;;;;;;;;;5033295;28;20182;-61
2023/07/16 09:30:06;;;;;;;7.47;5.65;;;;;;;;;;5035614;28;20036;-62
2023/07/16 09:32:32;;;;;;;8.73;5.75;;;;;;;;;;5035484;28;20202;-62
2023/07/16 09:34:57;;;;;;;9.93;5.93;;;;;;;;;;5034874;28;20033;-61
2023/07/16 09:37:23;;;;;;;8.37;5.47;;;;;;;;;;5034116;28;20064;-61
2023/07/16 09:39:48;;;;;;;8.23;5.80;;;;;;;;;;5018023;28;20307;-61
2023/07/16 09:42:13;;;;;;;8.77;5.80;;;;;;;;;;5034840;28;20040;-61
2023/07/16 09:44:39;;;;;;;6.60;5.65;;;;;;;;;;5034281;28;20790;-60
2023/07/16 09:47:05;;;;;;;8.38;6.35;;;;;;;;;;5031697;28;20069;-61
2023/07/16 09:49:30;;;;;;;7.97;5.70;;;;;;;;;;5035427;28;20580;-62
2023/07/16 09:51:58;;;;;;;7.90;5.27;;;;;;;;;;5017673;28;20110;-61
2023/07/16 09:54:24;;;;;;;9.15;6.68;;;;;;;;;;5034217;28;20378;-59
2023/07/16 09:56:51;;;;;;;9.55;5.90;;;;;;;;;;5004499;28;20035;-60
2023/07/16 09:59:16;;;;;;;9.02;6.22;;;;;;;;;;5036213;28;20041;-60
2023/07/16 10:01:42;;;;;;;7.30;5.50;;;;;;;;;;5038168;28;20383;-61
2023/07/16 10:04:13;;;;;;;8.43;5.97;;;;;;;;;;5039172;28;20033;-61
2023/07/16 10:06:52;;;;;;;6.85;5.78;;;;;;;;;;5036704;28;20356;-60
2023/07/16 10:09:32;;;;;;;7.38;5.30;;;;;;;;;;5037295;28;20041;-61
2023/07/16 10:12:08;;;;;;;8.60;5.30;;;;;;;;;;5037211;28;20052;-61
2023/07/16 10:14:38;;;;;;;8.45;5.82;;;;;;;;;;5036359;28;20034;-61
2023/07/16 10:17:05;;;;;;;6.57;5.20;;;;;;;;;;5037981;28;20037;-61
2023/07/16 10:19:30;;;;;;;8.60;5.40;;;;;;;;;;5038368;28;20108;-60
2023/07/16 10:21:55;;;;;;;8.05;5.60;;;;;;;;;;5036064;28;20549;-61
2023/07/16 10:24:21;;;;;;;7.55;5.18;;;;;;;;;;5036110;28;20041;-61
2023/07/16 10:26:46;;;;;;;6.88;4.97;;;;;;;;;;5004219;28;20095;-61
2023/07/16 10:29:14;;;;;;;6.13;4.88;;;;;;;;;;5011587;28;20041;-60
2023/07/16 10:31:39;;;;;;;7.47;5.20;;;;;;;;;;5037619;28;20049;-61
2023/07/16 10:34:04;;;;;;;7.77;5.40;;;;;;;;;;5020609;28;21908;-61
2023/07/16 10:36:30;;;;;;;6.40;5.13;;;;;;;;;;5035348;28;20257;-61
2023/07/16 10:39:01;;;;;;;6.88;5.30;;;;;;;;;;5030010;28;20041;-61
2023/07/16 10:41:27;;;;;;;6.32;4.93;;;;;;;;;;5035648;28;20041;-62
2023/07/16 10:43:52;;;;;;;7.15;5.25;;;;;;;;;;5016032;28;20023;-61
2023/07/16 10:46:18;;;;;;;6.90;5.10;;;;;;;;;;5035687;28;21678;-61
2023/07/16 10:48:47;;;;;;;6.97;5.00;;;;;;;;;;5019324;28;20276;-62
2023/07/16 10:51:14;;;;;;;5.97;4.93;;;;;;;;;;5036012;28;20029;-61
2023/07/16 10:53:41;;;;;;;6.75;4.68;;;;;;;;;;5033478;28;20119;-61
2023/07/16 10:56:06;;;;;;;6.20;4.78;;;;;;;;;;5035803;28;20037;-61
2023/07/16 10:58:31;;;;;;;6.57;5.28;;;;;;;;;;5035293;28;20020;-61
2023/07/16 11:00:57;;;;;;;6.10;4.90;;;;;;;;;;5035096;28;22342;-61
2023/07/16 11:03:22;;;;;;;5.40;4.53;;;;;;;;;;5036287;28;20276;-62
2023/07/16 11:05:47;;;;;;;5.60;4.78;;;;;;;;;;5034635;28;20037;-61
2023/07/16 11:08:21;;;;;;;6.60;4.67;;;;;;;;;;5034877;28;20512;-60
2023/07/16 11:10:52;;;;;;;7.07;4.93;;;;;;;;;;5035698;28;20029;-60
2023/07/16 11:13:17;;;;;;;6.43;4.55;;;;;;;;;;5034847;28;20055;-60
2023/07/16 11:15:42;;;;;;;5.85;4.60;;;;;;;;;;5034613;28;20471;-60
2023/07/16 11:18:08;;;;;;;5.18;4.45;;;;;;;;;;5034272;28;20507;-60
2023/07/16 11:20:33;;;;;;;6.18;5.03;;;;;;;;;;5023430;28;20368;-60
2023/07/16 11:22:59;;;;;;;6.25;4.80;;;;;;;;;;5035154;28;20044;-60
2023/07/16 11:25:25;;;;;;;5.13;4.25;;;;;;;;;;5015315;28;20051;-59
2023/07/16 11:27:50;;;;;;;5.35;4.43;;;;;;;;;;5035005;28;20033;-60
2023/07/16 11:30:15;;;;;;;5.75;4.18;;;;;;;;;;5023217;28;20044;-60
2023/07/16 11:32:45;;;;;;;5.30;4.27;;;;;;;;;;5035635;28;20032;-60
2023/07/16 11:35:15;;;;;;;6.57;4.30;;;;;;;;;;5033998;28;20284;-60
2023/07/16 11:37:40;;;;;;;4.72;3.80;;;;;;;;;;5035241;28;20041;-60
2023/07/16 11:40:06;;;;;;;6.00;5.05;;;;;;;;;;5018008;28;20431;-61
2023/07/16 11:42:32;;;;;;;6.38;4.53;;;;;;;;;;5036679;28;20049;-61
2023/07/16 11:44:57;;;;;;;6.95;4.60;;;;;;;;;;5035489;28;20120;-60
2023/07/16 11:47:23;;;;;;;6.60;4.60;;;;;;;;;;5035120;28;20067;-61
2023/07/16 11:49:48;;;;;;;7.47;4.80;;;;;;;;;;5036075;28;20414;-61
2023/07/16 11:52:14;;;;;;;7.10;4.65;;;;;;;;;;5033795;28;20311;-62
2023/07/16 11:54:39;;;;;;;5.97;5.05;;;;;;;;;;5034773;28;20043;-61
2023/07/16 11:57:04;;;;;;;5.53;4.28;;;;;;;;;;5034843;28;20033;-59
2023/07/16 11:59:30;;;;;;;4.55;4.10;;;;;;;;;;5032383;28;20033;-60
2023/07/16 12:01:55;;;;;;;5.45;4.30;;;;;;;;;;5034328;28;20044;-61
2023/07/16 12:04:20;;;;;;;6.30;4.67;;;;;;;;;;5035973;28;20052;-62
2023/07/16 12:06:46;;;;;;;6.33;4.57;;;;;;;;;;5035989;28;20874;-61
2023/07/16 12:09:11;;;;;;;5.80;4.38;;;;;;;;;;5035394;28;20370;-60
2023/07/16 12:11:37;;;;;;;5.90;4.45;;;;;;;;;;5034849;28;20930;-61
2023/07/16 12:14:03;;;;;;;6.40;4.55;;;;;;;;;;5034440;28;20171;-60
2023/07/16 12:16:28;;;;;;;6.05;4.20;;;;;;;;;;5034028;28;20037;-60
2023/07/16 12:18:53;;;;;;;5.77;4.13;;;;;;;;;;5015482;28;20045;-62
2023/07/16 12:21:19;;;;;;;5.78;4.63;;;;;;;;;;5034513;28;20291;-61
2023/07/16 12:23:44;;;;;;;5.00;4.37;;;;;;;;;;5034958;28;20034;-61
2023/07/16 12:26:09;;;;;;;5.20;4.50;;;;;;;;;;5035796;28;20131;-61
2023/07/16 12:28:34;;;;;;;5.65;4.47;;;;;;;;;;5018546;28;20295;-61
2023/07/16 12:31:00;;;;;;;5.40;4.53;;;;;;;;;;5035085;28;20073;-61
2023/07/16 12:33:25;;;;;;;6.73;4.60;;;;;;;;;;5018872;28;20307;-60
2023/07/16 12:35:50;;;;;;;5.97;4.45;;;;;;;;;;5034658;28;20380;-61
2023/07/16 12:38:16;;;;;;;5.15;4.32;;;;;;;;;;5030932;28;20076;-61
2023/07/16 12:40:41;;;;;;;6.10;4.13;;;;;;;;;;5034861;28;20147;-61
2023/07/16 12:43:06;;;;;;;6.03;4.23;;;;;;;;;;5034970;28;20318;-61
2023/07/16 12:45:32;;;;;;;4.32;3.92;;;;;;;;;;5035038;28;20342;-61
2023/07/16 12:47:57;;;;;;;5.57;4.10;;;;;;;;;;5035099;28;20783;-60
2023/07/16 12:50:23;;;;;;;5.55;4.65;;;;;;;;;;5032016;28;20056;-60
2023/07/16 12:52:48;;;;;;;5.67;4.10;;;;;;;;;;5035024;28;20056;-60
2023/07/16 12:55:14;;;;;;;6.35;4.18;;;;;;;;;;5034324;28;20365;-61
2023/07/16 12:57:39;;;;;;;5.40;4.47;;;;;;;;;;5032825;28;20033;-63
2023/07/16 13:00:05;;;;;;;4.93;4.30;;;;;;;;;;5033791;28;20481;-61
2023/07/16 13:02:30;;;;;;;5.18;3.92;;;;;;;;;;5034819;28;20299;-63
2023/07/16 13:04:55;;;;;;;4.87;4.27;;;;;;;;;;5034499;28;20324;-63
2023/07/16 13:07:20;;;;;;;5.88;4.03;;;;;;;;;;5033142;28;20530;-62
2023/07/16 13:09:46;;;;;;;6.23;4.57;;;;;;;;;;5033320;28;20037;-62
2023/07/16 13:12:11;;;;;;;5.20;4.40;;;;;;;;;;5035226;28;20299;-61
2023/07/16 13:14:36;;;;;;;5.90;4.23;;;;;;;;;;5034630;28;20091;-61
2023/07/16 13:17:04;;;;;;;4.97;4.40;;;;;;;;;;5034443;28;21053;-61
2023/07/16 13:19:29;;;;;;;5.40;4.07;;;;;;;;;;5033755;28;20036;-61
2023/07/16 13:21:54;;;;;;;5.20;4.53;;;;;;;;;;5034228;28;20041;-60
2023/07/16 13:24:19;;;;;;;5.07;4.23;;;;;;;;;;5036000;28;20049;-60
2023/07/16 13:26:44;;;;;;;4.90;4.00;;;;;;;;;;5034414;28;20033;-60
2023/07/16 13:29:10;;;;;;;5.23;3.87;;;;;;;;;;5033484;28;20832;-61
2023/07/16 13:31:35;;;;;;;5.87;4.23;;;;;;;;;;5033844;28;20617;-61
2023/07/16 13:34:00;;;;;;;4.83;4.10;;;;;;;;;;5034661;28;20294;-61
2023/07/16 13:36:25;;;;;;;5.07;4.20;;;;;;;;;;5035082;28;20040;-61
2023/07/16 13:38:51;;;;;;;5.35;4.20;;;;;;;;;;5030884;28;20042;-61
2023/07/16 13:41:16;;;;;;;4.57;3.90;;;;;;;;;;5010779;28;20760;-60
2023/07/16 13:43:41;;;;;;;4.82;3.78;;;;;;;;;;5014808;28;20291;-60
2023/07/16 13:46:06;;;;;;;5.03;3.90;;;;;;;;;;5015013;28;20597;-60
2023/07/16 13:48:32;;;;;;;4.93;4.20;;;;;;;;;;5028714;28;20325;-59
2023/07/16 13:50:57;;;;;;;5.10;4.27;;;;;;;;;;5030015;28;20323;-58
2023/07/16 13:53:22;;;;;;;4.17;3.50;;;;;;;;;;5033629;28;20803;-59
2023/07/16 13:55:48;;;;;;;6.00;4.20;;;;;;;;;;5033800;28;20855;-60
2023/07/16 13:58:14;;;;;;;5.00;4.28;;;;;;;;;;5034054;28;20298;-59
2023/07/16 14:00:39;;;;;;;4.90;4.07;;;;;;;;;;5031991;28;20032;-60
2023/07/16 14:03:06;;;;;;;4.35;3.92;;;;;;;;;;5032218;28;20029;-60
2023/07/16 14:05:34;;;;;;;4.75;3.95;;;;;;;;;;5033492;28;20573;-59
2023/07/16 14:07:59;;;;;;;5.30;4.18;;;;;;;;;;5032561;28;20085;-60
2023/07/16 14:10:25;;;;;;;4.93;4.30;;;;;;;;;;5032649;28;20033;-60
2023/07/16 14:12:50;;;;;;;4.67;3.87;;;;;;;;;;5016254;28;20914;-60
2023/07/16 14:15:15;;;;;;;7.43;4.23;;;;;;;;;;5033152;28;20323;-60
2023/07/16 14:17:40;;;;;;;4.55;4.13;;;;;;;;;;5033512;28;20353;-59
2023/07/16 14:20:06;;;;;;;4.80;3.88;;;;;;;;;;5028730;28;20030;-59
2023/07/16 14:22:31;;;;;;;4.43;3.88;;;;;;;;;;5031103;28;20122;-59
2023/07/16 14:24:57;;;;;;;4.75;4.00;;;;;;;;;;5031626;28;20528;-60
2023/07/16 14:27:22;;;;;;;4.95;3.55;;;;;;;;;;5032019;28;20045;-59
2023/07/16 14:29:48;;;;;;;4.75;4.03;;;;;;;;;;5031198;28;20040;-60
2023/07/16 14:32:13;;;;;;;4.13;3.53;;;;;;;;;;5031280;28;20044;-60
2023/07/16 14:34:38;;;;;;;4.37;3.83;;;;;;;;;;5032687;28;20502;-59